TNCB/BON METAR and TAF weather

Enter ICAO airport designator
Station Type Date Time Source
TNCB METAR 2021/09/16 21:55 UTC NOAA

TNCB 162155Z AUTO 09014KT 060V130 9999 SCT016/// SCT020/// 30/25 Q1012


Station Type Date Time Source
TNCB Decoded METAR 2021/09/16 21:55 UTC NOAA

Flamingo Airport, Bonaire, Netherlands Antilles (TNCB) 12-09N 068-17W 7M
Sep 16, 2021 - 05:55 PM EDT / 2021.09.16 2155 UTC
Wind: from the E (090 degrees) at 16 MPH (14 KT) (direction variable):0
Visibility: greater than 7 mile(s):0
Sky conditions: partly cloudy
Temperature: 86 F (30 C)
Heat index: 96.8 F (36.0 C):1
Dew Point: 77 F (25 C)
Relative Humidity: 74%
Pressure (altimeter): 29.88 in. Hg (1012 hPa)
ob: TNCB 162155Z AUTO 09014KT 060V130 9999 SCT016/// SCT020/// 30/25 Q1012
cycle: 22

Station Type Date Time Source
TNCB TAF 2021/09/16 18:27 UTC NOAA

TAF TAF TNCB 161715Z 1618/1724 09015KT 9999 SCT018

Example: see airport list